sensor_id;sensor_type;location;lat;lon;timestamp;temperature;humidity
47618;DHT22;33336;36.728;-4.414;2023-06-22T00:04:17;26.60;93.90
47618;DHT22;33336;36.728;-4.414;2023-06-22T00:09:20;26.50;93.60
47618;DHT22;33336;36.728;-4.414;2023-06-22T00:14:23;26.30;92.50
47618;DHT22;33336;36.728;-4.414;2023-06-22T00:19:27;26.40;90.30
47618;DHT22;33336;36.728;-4.414;2023-06-22T00:24:30;26.10;88.80
47618;DHT22;33336;36.728;-4.414;2023-06-22T00:29:33;26.30;87.40
47618;DHT22;33336;36.728;-4.414;2023-06-22T00:34:38;26.40;86.10
47618;DHT22;33336;36.728;-4.414;2023-06-22T00:39:40;26.60;85.70
47618;DHT22;33336;36.728;-4.414;2023-06-22T00:44:44;26.10;86.10
47618;DHT22;33336;36.728;-4.414;2023-06-22T00:49:49;26.00;86.70
47618;DHT22;33336;36.728;-4.414;2023-06-22T00:54:53;26.30;86.70
47618;DHT22;33336;36.728;-4.414;2023-06-22T00:59:56;26.20;86.60
47618;DHT22;33336;36.728;-4.414;2023-06-22T01:05:01;26.40;86.30
47618;DHT22;33336;36.728;-4.414;2023-06-22T01:10:08;26.50;86.30
47618;DHT22;33336;36.728;-4.414;2023-06-22T01:15:21;26.40;85.50
47618;DHT22;33336;36.728;-4.414;2023-06-22T01:20:28;26.50;85.90
47618;DHT22;33336;36.728;-4.414;2023-06-22T01:25:36;26.60;85.80
47618;DHT22;33336;36.728;-4.414;2023-06-22T01:30:45;25.80;86.90
47618;DHT22;33336;36.728;-4.414;2023-06-22T01:35:49;25.50;87.90
47618;DHT22;33336;36.728;-4.414;2023-06-22T01:40:52;25.30;88.40
47618;DHT22;33336;36.728;-4.414;2023-06-22T01:46:01;25.70;88.10
47618;DHT22;33336;36.728;-4.414;2023-06-22T01:51:04;25.50;88.20
47618;DHT22;33336;36.728;-4.414;2023-06-22T01:56:08;25.50;88.20
47618;DHT22;33336;36.728;-4.414;2023-06-22T02:01:14;25.40;88.80
47618;DHT22;33336;36.728;-4.414;2023-06-22T02:06:23;25.30;89.10
47618;DHT22;33336;36.728;-4.414;2023-06-22T02:11:28;25.40;88.80
47618;DHT22;33336;36.728;-4.414;2023-06-22T02:16:35;25.70;88.80
47618;DHT22;33336;36.728;-4.414;2023-06-22T02:21:39;26.00;89.20
47618;DHT22;33336;36.728;-4.414;2023-06-22T02:26:43;25.70;88.40
47618;DHT22;33336;36.728;-4.414;2023-06-22T02:31:48;25.50;89.00
47618;DHT22;33336;36.728;-4.414;2023-06-22T02:36:51;25.50;89.50
47618;DHT22;33336;36.728;-4.414;2023-06-22T02:41:55;25.30;90.00
47618;DHT22;33336;36.728;-4.414;2023-06-22T02:47:00;25.60;89.30
47618;DHT22;33336;36.728;-4.414;2023-06-22T02:52:03;25.70;89.90
47618;DHT22;33336;36.728;-4.414;2023-06-22T02:57:06;25.60;90.30
47618;DHT22;33336;36.728;-4.414;2023-06-22T03:02:16;25.70;90.30
47618;DHT22;33336;36.728;-4.414;2023-06-22T03:07:20;25.60;90.20
47618;DHT22;33336;36.728;-4.414;2023-06-22T03:12:23;25.30;90.60
47618;DHT22;33336;36.728;-4.414;2023-06-22T03:17:27;25.70;90.30
47618;DHT22;33336;36.728;-4.414;2023-06-22T03:22:30;26.00;89.70
47618;DHT22;33336;36.728;-4.414;2023-06-22T03:27:33;26.00;89.90
47618;DHT22;33336;36.728;-4.414;2023-06-22T03:32:38;25.80;89.70
47618;DHT22;33336;36.728;-4.414;2023-06-22T03:37:41;25.80;90.00
47618;DHT22;33336;36.728;-4.414;2023-06-22T03:42:45;25.50;90.00
47618;DHT22;33336;36.728;-4.414;2023-06-22T03:47:50;25.20;90.50
47618;DHT22;33336;36.728;-4.414;2023-06-22T03:52:53;25.50;90.40
47618;DHT22;33336;36.728;-4.414;2023-06-22T03:57:56;25.40;90.60
47618;DHT22;33336;36.728;-4.414;2023-06-22T04:03:01;25.20;90.90
47618;DHT22;33336;36.728;-4.414;2023-06-22T04:08:05;25.00;92.10
47618;DHT22;33336;36.728;-4.414;2023-06-22T04:13:07;24.80;94.50
47618;DHT22;33336;36.728;-4.414;2023-06-22T04:18:12;24.70;94.40
47618;DHT22;33336;36.728;-4.414;2023-06-22T04:23:15;24.90;94.30
47618;DHT22;33336;36.728;-4.414;2023-06-22T04:28:18;24.70;94.40
47618;DHT22;33336;36.728;-4.414;2023-06-22T04:33:23;24.60;94.60
47618;DHT22;33336;36.728;-4.414;2023-06-22T04:38:26;24.60;94.80
47618;DHT22;33336;36.728;-4.414;2023-06-22T04:43:29;24.50;95.50
47618;DHT22;33336;36.728;-4.414;2023-06-22T04:48:34;24.60;95.40
47618;DHT22;33336;36.728;-4.414;2023-06-22T04:53:36;24.80;95.00
47618;DHT22;33336;36.728;-4.414;2023-06-22T04:58:42;24.70;94.70
47618;DHT22;33336;36.728;-4.414;2023-06-22T05:03:46;24.80;94.30
47618;DHT22;33336;36.728;-4.414;2023-06-22T05:08:51;24.80;94.60
47618;DHT22;33336;36.728;-4.414;2023-06-22T05:13:54;24.80;94.40
47618;DHT22;33336;36.728;-4.414;2023-06-22T05:18:58;24.90;93.70
47618;DHT22;33336;36.728;-4.414;2023-06-22T05:24:01;24.90;93.00
47618;DHT22;33336;36.728;-4.414;2023-06-22T05:29:05;24.80;92.70
47618;DHT22;33336;36.728;-4.414;2023-06-22T05:34:10;24.80;92.70
47618;DHT22;33336;36.728;-4.414;2023-06-22T05:39:14;24.90;92.60
47618;DHT22;33336;36.728;-4.414;2023-06-22T05:44:17;25.00;92.50
47618;DHT22;33336;36.728;-4.414;2023-06-22T05:49:22;25.10;92.20
47618;DHT22;33336;36.728;-4.414;2023-06-22T05:54:26;25.20;92.10
47618;DHT22;33336;36.728;-4.414;2023-06-22T05:59:30;25.20;91.90
47618;DHT22;33336;36.728;-4.414;2023-06-22T06:04:34;25.20;91.80
47618;DHT22;33336;36.728;-4.414;2023-06-22T06:09:37;25.00;92.10
47618;DHT22;33336;36.728;-4.414;2023-06-22T06:14:40;25.10;91.90
47618;DHT22;33336;36.728;-4.414;2023-06-22T06:19:45;24.90;91.80
47618;DHT22;33336;36.728;-4.414;2023-06-22T06:24:47;24.80;91.80
47618;DHT22;33336;36.728;-4.414;2023-06-22T06:29:50;25.00;91.60
47618;DHT22;33336;36.728;-4.414;2023-06-22T06:34:55;25.00;92.00
47618;DHT22;33336;36.728;-4.414;2023-06-22T06:39:58;25.40;91.50
47618;DHT22;33336;36.728;-4.414;2023-06-22T06:45:01;24.80;91.40
47618;DHT22;33336;36.728;-4.414;2023-06-22T06:50:07;24.80;91.80
47618;DHT22;33336;36.728;-4.414;2023-06-22T06:55:10;24.80;91.80
47618;DHT22;33336;36.728;-4.414;2023-06-22T07:00:16;25.30;91.30
47618;DHT22;33336;36.728;-4.414;2023-06-22T07:05:21;25.70;91.00
47618;DHT22;33336;36.728;-4.414;2023-06-22T07:10:25;25.40;91.00
47618;DHT22;33336;36.728;-4.414;2023-06-22T07:15:28;25.30;90.90
47618;DHT22;33336;36.728;-4.414;2023-06-22T07:20:32;25.30;90.90
47618;DHT22;33336;36.728;-4.414;2023-06-22T07:25:35;25.40;91.40
47618;DHT22;33336;36.728;-4.414;2023-06-22T07:30:39;25.90;92.00
47618;DHT22;33336;36.728;-4.414;2023-06-22T07:35:44;25.60;93.00
47618;DHT22;33336;36.728;-4.414;2023-06-22T07:40:48;25.50;93.50
47618;DHT22;33336;36.728;-4.414;2023-06-22T07:45:52;25.60;94.00
47618;DHT22;33336;36.728;-4.414;2023-06-22T07:50:57;25.80;94.00
47618;DHT22;33336;36.728;-4.414;2023-06-22T07:56:00;25.60;94.30
47618;DHT22;33336;36.728;-4.414;2023-06-22T08:01:08;26.00;94.10
47618;DHT22;33336;36.728;-4.414;2023-06-22T08:06:14;26.70;93.70
47618;DHT22;33336;36.728;-4.414;2023-06-22T08:11:17;26.20;93.80
47618;DHT22;33336;36.728;-4.414;2023-06-22T08:16:20;25.90;94.70
47618;DHT22;33336;36.728;-4.414;2023-06-22T08:21:26;25.80;95.30
47618;DHT22;33336;36.728;-4.414;2023-06-22T08:26:29;25.80;96.40
47618;DHT22;33336;36.728;-4.414;2023-06-22T08:31:32;26.10;95.70
47618;DHT22;33336;36.728;-4.414;2023-06-22T08:36:38;26.70;95.00
47618;DHT22;33336;36.728;-4.414;2023-06-22T08:41:44;26.90;94.80
47618;DHT22;33336;36.728;-4.414;2023-06-22T08:46:48;27.00;94.30
47618;DHT22;33336;36.728;-4.414;2023-06-22T08:51:52;27.40;94.60
47618;DHT22;33336;36.728;-4.414;2023-06-22T08:56:57;27.10;95.30
47618;DHT22;33336;36.728;-4.414;2023-06-22T09:02:00;27.10;95.40
47618;DHT22;33336;36.728;-4.414;2023-06-22T09:07:06;26.40;96.90
47618;DHT22;33336;36.728;-4.414;2023-06-22T09:12:10;26.50;98.00
47618;DHT22;33336;36.728;-4.414;2023-06-22T09:17:12;26.40;98.60
47618;DHT22;33336;36.728;-4.414;2023-06-22T09:22:17;26.50;98.40
47618;DHT22;33336;36.728;-4.414;2023-06-22T09:27:20;26.70;98.30
47618;DHT22;33336;36.728;-4.414;2023-06-22T09:32:23;27.00;98.10
47618;DHT22;33336;36.728;-4.414;2023-06-22T09:37:28;27.30;97.70
47618;DHT22;33336;36.728;-4.414;2023-06-22T09:42:30;27.20;97.60
47618;DHT22;33336;36.728;-4.414;2023-06-22T09:47:35;27.30;97.30
47618;DHT22;33336;36.728;-4.414;2023-06-22T09:52:40;27.20;97.80
47618;DHT22;33336;36.728;-4.414;2023-06-22T09:57:46;27.60;97.40
47618;DHT22;33336;36.728;-4.414;2023-06-22T10:02:49;27.40;97.60
47618;DHT22;33336;36.728;-4.414;2023-06-22T10:07:54;27.10;98.20
47618;DHT22;33336;36.728;-4.414;2023-06-22T10:13:02;26.60;99.40
47618;DHT22;33336;36.728;-4.414;2023-06-22T10:18:05;27.10;99.00
47618;DHT22;33336;36.728;-4.414;2023-06-22T10:23:10;27.30;98.60
47618;DHT22;33336;36.728;-4.414;2023-06-22T10:28:15;26.70;99.40
47618;DHT22;33336;36.728;-4.414;2023-06-22T10:33:18;27.00;99.40
47618;DHT22;33336;36.728;-4.414;2023-06-22T10:38:24;27.30;99.30
47618;DHT22;33336;36.728;-4.414;2023-06-22T10:43:26;27.10;99.40
47618;DHT22;33336;36.728;-4.414;2023-06-22T10:48:30;27.20;99.20
47618;DHT22;33336;36.728;-4.414;2023-06-22T10:53:34;27.40;98.80
47618;DHT22;33336;36.728;-4.414;2023-06-22T10:58:37;27.40;98.40
47618;DHT22;33336;36.728;-4.414;2023-06-22T11:03:40;27.20;99.10
47618;DHT22;33336;36.728;-4.414;2023-06-22T11:08:45;27.20;99.10
47618;DHT22;33336;36.728;-4.414;2023-06-22T11:13:48;27.60;99.00
47618;DHT22;33336;36.728;-4.414;2023-06-22T11:18:51;27.50;99.10
47618;DHT22;33336;36.728;-4.414;2023-06-22T11:23:55;27.90;98.20
47618;DHT22;33336;36.728;-4.414;2023-06-22T11:28:58;28.10;97.50
47618;DHT22;33336;36.728;-4.414;2023-06-22T11:34:01;27.80;97.60
47618;DHT22;33336;36.728;-4.414;2023-06-22T11:39:05;28.00;97.20
47618;DHT22;33336;36.728;-4.414;2023-06-22T11:44:09;28.30;97.00
47618;DHT22;33336;36.728;-4.414;2023-06-22T11:49:12;28.40;97.10
47618;DHT22;33336;36.728;-4.414;2023-06-22T11:54:16;28.20;97.80
47618;DHT22;33336;36.728;-4.414;2023-06-22T11:59:19;28.20;97.80
47618;DHT22;33336;36.728;-4.414;2023-06-22T12:04:24;28.50;97.70
47618;DHT22;33336;36.728;-4.414;2023-06-22T12:09:28;28.10;97.90
47618;DHT22;33336;36.728;-4.414;2023-06-22T12:14:31;27.80;98.60
47618;DHT22;33336;36.728;-4.414;2023-06-22T12:19:34;28.20;98.10
47618;DHT22;33336;36.728;-4.414;2023-06-22T12:24:38;28.50;98.00
47618;DHT22;33336;36.728;-4.414;2023-06-22T12:29:41;28.40;97.80
47618;DHT22;33336;36.728;-4.414;2023-06-22T12:34:44;28.70;97.00
47618;DHT22;33336;36.728;-4.414;2023-06-22T12:39:49;28.30;97.10
47618;DHT22;33336;36.728;-4.414;2023-06-22T12:44:52;28.80;96.90
47618;DHT22;33336;36.728;-4.414;2023-06-22T12:49:55;28.80;96.40
47618;DHT22;33336;36.728;-4.414;2023-06-22T12:54:59;28.80;96.40
47618;DHT22;33336;36.728;-4.414;2023-06-22T13:00:03;28.70;97.00
47618;DHT22;33336;36.728;-4.414;2023-06-22T13:05:07;29.00;96.20
47618;DHT22;33336;36.728;-4.414;2023-06-22T13:10:11;29.50;96.20
47618;DHT22;33336;36.728;-4.414;2023-06-22T13:15:15;29.30;95.60
47618;DHT22;33336;36.728;-4.414;2023-06-22T13:20:18;29.20;96.00
47618;DHT22;33336;36.728;-4.414;2023-06-22T13:25:23;29.00;95.80
47618;DHT22;33336;36.728;-4.414;2023-06-22T13:30:27;29.50;96.20
47618;DHT22;33336;36.728;-4.414;2023-06-22T13:35:31;29.60;95.70
47618;DHT22;33336;36.728;-4.414;2023-06-22T13:40:35;29.90;95.40
47618;DHT22;33336;36.728;-4.414;2023-06-22T13:45:39;29.70;94.90
47618;DHT22;33336;36.728;-4.414;2023-06-22T13:50:42;30.20;94.20
47618;DHT22;33336;36.728;-4.414;2023-06-22T13:55:48;30.20;93.00
47618;DHT22;33336;36.728;-4.414;2023-06-22T14:00:54;30.40;93.00
47618;DHT22;33336;36.728;-4.414;2023-06-22T14:06:00;30.10;92.40
47618;DHT22;33336;36.728;-4.414;2023-06-22T14:11:29;30.30;92.10
47618;DHT22;33336;36.728;-4.414;2023-06-22T14:16:37;30.80;92.00
47618;DHT22;33336;36.728;-4.414;2023-06-22T14:21:46;29.80;91.90
47618;DHT22;33336;36.728;-4.414;2023-06-22T14:26:53;30.00;91.10
47618;DHT22;33336;36.728;-4.414;2023-06-22T14:31:56;30.60;91.30
47618;DHT22;33336;36.728;-4.414;2023-06-22T14:36:59;29.80;91.90
47618;DHT22;33336;36.728;-4.414;2023-06-22T14:42:04;29.60;92.70
47618;DHT22;33336;36.728;-4.414;2023-06-22T14:47:07;30.30;92.70
47618;DHT22;33336;36.728;-4.414;2023-06-22T14:52:10;30.50;92.00
47618;DHT22;33336;36.728;-4.414;2023-06-22T14:57:15;30.70;92.10
47618;DHT22;33336;36.728;-4.414;2023-06-22T15:02:21;30.70;91.70
47618;DHT22;33336;36.728;-4.414;2023-06-22T15:07:25;30.80;91.80
47618;DHT22;33336;36.728;-4.414;2023-06-22T15:12:29;31.20;91.90
47618;DHT22;33336;36.728;-4.414;2023-06-22T15:17:32;31.20;92.00
47618;DHT22;33336;36.728;-4.414;2023-06-22T15:22:35;31.00;91.40
47618;DHT22;33336;36.728;-4.414;2023-06-22T15:27:39;31.00;92.00
47618;DHT22;33336;36.728;-4.414;2023-06-22T15:32:43;31.60;91.50
47618;DHT22;33336;36.728;-4.414;2023-06-22T15:37:48;33.00;90.90
47618;DHT22;33336;36.728;-4.414;2023-06-22T15:42:54;33.20;89.60
47618;DHT22;33336;36.728;-4.414;2023-06-22T15:47:57;33.90;88.70
47618;DHT22;33336;36.728;-4.414;2023-06-22T15:53:00;33.00;89.20
47618;DHT22;33336;36.728;-4.414;2023-06-22T15:58:04;35.30;88.70
47618;DHT22;33336;36.728;-4.414;2023-06-22T16:03:07;35.70;87.00
47618;DHT22;33336;36.728;-4.414;2023-06-22T16:08:11;35.70;85.60
47618;DHT22;33336;36.728;-4.414;2023-06-22T16:13:15;35.20;86.00
47618;DHT22;33336;36.728;-4.414;2023-06-22T16:18:19;35.20;85.60
47618;DHT22;33336;36.728;-4.414;2023-06-22T16:23:21;35.80;85.50
47618;DHT22;33336;36.728;-4.414;2023-06-22T16:28:26;34.90;86.70
47618;DHT22;33336;36.728;-4.414;2023-06-22T16:33:29;35.20;86.70
47618;DHT22;33336;36.728;-4.414;2023-06-22T16:38:32;34.90;86.50
47618;DHT22;33336;36.728;-4.414;2023-06-22T16:43:36;32.90;90.20
47618;DHT22;33336;36.728;-4.414;2023-06-22T16:48:41;33.20;88.30
47618;DHT22;33336;36.728;-4.414;2023-06-22T16:53:44;32.80;90.30
47618;DHT22;33336;36.728;-4.414;2023-06-22T16:58:50;32.40;89.80
47618;DHT22;33336;36.728;-4.414;2023-06-22T17:04:01;31.90;91.00
47618;DHT22;33336;36.728;-4.414;2023-06-22T17:09:11;31.70;91.00
47618;DHT22;33336;36.728;-4.414;2023-06-22T17:14:16;31.70;90.60
47618;DHT22;33336;36.728;-4.414;2023-06-22T17:19:19;31.80;90.90
47618;DHT22;33336;36.728;-4.414;2023-06-22T17:24:24;33.20;89.90
47618;DHT22;33336;36.728;-4.414;2023-06-22T17:29:30;32.80;89.40
47618;DHT22;33336;36.728;-4.414;2023-06-22T17:34:34;32.50;90.10
47618;DHT22;33336;36.728;-4.414;2023-06-22T17:39:38;33.00;90.00
47618;DHT22;33336;36.728;-4.414;2023-06-22T17:44:44;33.80;89.70
47618;DHT22;33336;36.728;-4.414;2023-06-22T17:49:48;34.00;88.10
47618;DHT22;33336;36.728;-4.414;2023-06-22T17:54:51;33.40;87.90
47618;DHT22;33336;36.728;-4.414;2023-06-22T17:59:55;32.60;88.80
47618;DHT22;33336;36.728;-4.414;2023-06-22T18:05:01;32.40;89.80
47618;DHT22;33336;36.728;-4.414;2023-06-22T18:10:08;32.00;91.30
47618;DHT22;33336;36.728;-4.414;2023-06-22T18:15:12;31.20;90.60
47618;DHT22;33336;36.728;-4.414;2023-06-22T18:20:17;31.10;91.80
47618;DHT22;33336;36.728;-4.414;2023-06-22T18:25:20;31.40;91.60
47618;DHT22;33336;36.728;-4.414;2023-06-22T18:30:27;30.90;92.50
47618;DHT22;33336;36.728;-4.414;2023-06-22T18:35:30;32.30;90.90
47618;DHT22;33336;36.728;-4.414;2023-06-22T18:40:34;33.00;89.50
47618;DHT22;33336;36.728;-4.414;2023-06-22T18:45:39;34.80;88.20
47618;DHT22;33336;36.728;-4.414;2023-06-22T18:50:44;35.80;86.20
47618;DHT22;33336;36.728;-4.414;2023-06-22T18:55:50;37.00;85.30
47618;DHT22;33336;36.728;-4.414;2023-06-22T19:01:14;38.50;82.70
47618;DHT22;33336;36.728;-4.414;2023-06-22T19:12:18;39.00;79.60
47618;DHT22;33336;36.728;-4.414;2023-06-22T19:17:23;38.30;77.50
47618;DHT22;33336;36.728;-4.414;2023-06-22T19:22:46;37.80;79.00
47618;DHT22;33336;36.728;-4.414;2023-06-22T19:27:50;36.80;80.80
47618;DHT22;33336;36.728;-4.414;2023-06-22T19:32:58;35.80;81.30
47618;DHT22;33336;36.728;-4.414;2023-06-22T19:38:01;35.00;82.20
47618;DHT22;33336;36.728;-4.414;2023-06-22T19:43:06;33.90;81.50
47618;DHT22;33336;36.728;-4.414;2023-06-22T19:48:12;33.10;82.60
47618;DHT22;33336;36.728;-4.414;2023-06-22T19:53:16;32.90;83.40
47618;DHT22;33336;36.728;-4.414;2023-06-22T19:58:20;32.70;83.50
47618;DHT22;33336;36.728;-4.414;2023-06-22T20:03:28;32.40;83.50
47618;DHT22;33336;36.728;-4.414;2023-06-22T20:08:42;31.40;83.90
47618;DHT22;33336;36.728;-4.414;2023-06-22T20:13:46;31.10;84.00
47618;DHT22;33336;36.728;-4.414;2023-06-22T20:19:09;30.70;86.10
47618;DHT22;33336;36.728;-4.414;2023-06-22T20:24:14;30.80;88.40
47618;DHT22;33336;36.728;-4.414;2023-06-22T20:29:24;29.50;87.10
47618;DHT22;33336;36.728;-4.414;2023-06-22T20:34:33;29.20;86.70
47618;DHT22;33336;36.728;-4.414;2023-06-22T20:39:35;29.30;86.80
47618;DHT22;33336;36.728;-4.414;2023-06-22T20:44:39;28.80;87.80
47618;DHT22;33336;36.728;-4.414;2023-06-22T20:49:43;29.10;88.20
47618;DHT22;33336;36.728;-4.414;2023-06-22T20:54:47;29.50;87.20
47618;DHT22;33336;36.728;-4.414;2023-06-22T20:59:50;29.00;88.40
47618;DHT22;33336;36.728;-4.414;2023-06-22T21:04:54;29.00;88.70
47618;DHT22;33336;36.728;-4.414;2023-06-22T21:09:57;28.10;90.20
47618;DHT22;33336;36.728;-4.414;2023-06-22T21:15:01;27.80;89.20
47618;DHT22;33336;36.728;-4.414;2023-06-22T21:20:09;28.10;89.60
47618;DHT22;33336;36.728;-4.414;2023-06-22T21:25:13;28.40;90.00
47618;DHT22;33336;36.728;-4.414;2023-06-22T21:30:16;28.00;90.60
47618;DHT22;33336;36.728;-4.414;2023-06-22T21:35:22;27.80;90.90
47618;DHT22;33336;36.728;-4.414;2023-06-22T21:40:26;27.90;91.00
47618;DHT22;33336;36.728;-4.414;2023-06-22T21:45:29;27.90;91.00
47618;DHT22;33336;36.728;-4.414;2023-06-22T21:50:33;27.60;91.30
47618;DHT22;33336;36.728;-4.414;2023-06-22T21:55:36;27.50;91.60
47618;DHT22;33336;36.728;-4.414;2023-06-22T22:00:43;27.30;91.60
47618;DHT22;33336;36.728;-4.414;2023-06-22T22:05:47;27.00;90.30
47618;DHT22;33336;36.728;-4.414;2023-06-22T22:10:51;27.10;90.20
47618;DHT22;33336;36.728;-4.414;2023-06-22T22:15:54;27.50;89.50
47618;DHT22;33336;36.728;-4.414;2023-06-22T22:20:58;27.40;88.20
47618;DHT22;33336;36.728;-4.414;2023-06-22T22:26:04;27.40;88.50
47618;DHT22;33336;36.728;-4.414;2023-06-22T22:31:12;27.60;88.40
47618;DHT22;33336;36.728;-4.414;2023-06-22T22:36:16;27.50;88.20
47618;DHT22;33336;36.728;-4.414;2023-06-22T22:41:19;27.00;89.30
47618;DHT22;33336;36.728;-4.414;2023-06-22T22:46:22;26.50;90.20
47618;DHT22;33336;36.728;-4.414;2023-06-22T22:51:26;26.60;90.60
47618;DHT22;33336;36.728;-4.414;2023-06-22T22:56:29;26.80;90.60
47618;DHT22;33336;36.728;-4.414;2023-06-22T23:01:33;26.80;90.40
47618;DHT22;33336;36.728;-4.414;2023-06-22T23:06:37;26.60;90.40
47618;DHT22;33336;36.728;-4.414;2023-06-22T23:11:40;26.60;90.70
47618;DHT22;33336;36.728;-4.414;2023-06-22T23:16:43;26.30;90.60
47618;DHT22;33336;36.728;-4.414;2023-06-22T23:21:48;26.20;90.70
47618;DHT22;33336;36.728;-4.414;2023-06-22T23:26:51;26.60;90.50
47618;DHT22;33336;36.728;-4.414;2023-06-22T23:31:58;26.70;90.30
47618;DHT22;33336;36.728;-4.414;2023-06-22T23:37:02;26.60;90.40
47618;DHT22;33336;36.728;-4.414;2023-06-22T23:42:07;26.40;90.30
47618;DHT22;33336;36.728;-4.414;2023-06-22T23:47:12;26.20;90.20
47618;DHT22;33336;36.728;-4.414;2023-06-22T23:52:17;26.60;90.30
47618;DHT22;33336;36.728;-4.414;2023-06-22T23:57:20;26.50;90.00
